Time;durP1;ratioP1;P1;durP2;ratioP2;P2;SDS_P1;SDS_P2;PMS_P1;PMS_P2;Temp;Humidity;BMP_temperature;BMP_pressure;BME280_temperature;BME280_humidity;BME280_pressure;Samples;Min_cycle;Max_cycle;Signal;HPM_P1;HPM_P2
2021/11/08 00:01:30;;;;;;;;;;;22.00;35.20;;;;;;500655;237;1333;-81
2021/11/08 00:03:34;;;;;;;;;;;22.30;35.10;;;;;;500752;237;1065;-81
2021/11/08 00:05:36;;;;;;;;;;;22.30;35.00;;;;;;500429;238;1329;-81
2021/11/08 00:07:36;;;;;;;;;;;22.10;35.40;;;;;;500137;238;1328;-81
2021/11/08 00:09:36;;;;;;;;;;;22.10;35.20;;;;;;500530;238;1329;-81
2021/11/08 00:11:39;;;;;;;;;;;22.40;35.10;;;;;;500643;237;2179;-81
2021/11/08 00:13:39;;;;;;;;;;;22.60;34.70;;;;;;500612;237;1527;-81
2021/11/08 00:15:47;;;;;;;;;;;22.70;34.40;;;;;;500645;237;856;-82
2021/11/08 00:17:53;;;;;;;;;;;23.10;34.00;;;;;;500125;234;1476;-81
2021/11/08 00:19:59;;;;;;;;;;;23.20;33.60;;;;;;500292;238;1306;-81
2021/11/08 00:22:00;;;;;;;;;;;23.10;33.80;;;;;;500368;238;1265;-81
2021/11/08 00:23:59;;;;;;;;;;;23.20;33.50;;;;;;500487;238;1476;-81
2021/11/08 00:26:01;;;;;;;;;;;23.50;33.40;;;;;;500542;237;990;-81
2021/11/08 00:28:02;;;;;;;;;;;23.40;33.30;;;;;;500320;238;1301;-81
2021/11/08 00:30:04;;;;;;;;;;;23.70;32.90;;;;;;500622;237;916;-82
2021/11/08 00:32:05;;;;;;;;;;;23.50;33.00;;;;;;500592;237;2183;-82
2021/11/08 00:34:07;;;;;;;;;;;23.90;32.70;;;;;;500616;237;1223;-82
2021/11/08 00:36:08;;;;;;;;;;;23.80;32.70;;;;;;500539;237;863;-81
2021/11/08 00:38:09;;;;;;;;;;;24.00;32.60;;;;;;500576;237;1373;-81
2021/11/08 00:40:11;;;;;;;;;;;24.10;32.30;;;;;;500645;237;936;-81
2021/11/08 00:42:12;;;;;;;;;;;24.10;32.30;;;;;;500581;237;856;-82
2021/11/08 00:44:13;;;;;;;;;;;24.10;32.30;;;;;;500604;237;960;-81
2021/11/08 00:46:15;;;;;;;;;;;24.20;32.20;;;;;;500592;237;1134;-82
2021/11/08 00:48:19;;;;;;;;;;;24.10;32.40;;;;;;500567;237;1152;-81
2021/11/08 00:50:18;;;;;;;;;;;24.20;32.30;;;;;;500169;238;1301;-81
2021/11/08 00:52:19;;;;;;;;;;;24.30;32.20;;;;;;500465;237;2175;-81
2021/11/08 00:54:20;;;;;;;;;;;24.30;32.10;;;;;;500588;237;1143;-82
2021/11/08 00:56:23;;;;;;;;;;;24.40;32.00;;;;;;500540;237;1301;-81
2021/11/08 00:58:26;;;;;;;;;;;24.30;32.10;;;;;;500490;238;1412;-82
2021/11/08 01:00:27;;;;;;;;;;;24.40;32.10;;;;;;500244;238;1357;-81
2021/11/08 01:02:27;;;;;;;;;;;24.10;32.20;;;;;;500400;238;1347;-81
2021/11/08 01:04:27;;;;;;;;;;;24.20;32.30;;;;;;500642;238;1508;-81
2021/11/08 01:06:29;;;;;;;;;;;24.10;32.40;;;;;;500525;237;1030;-81
2021/11/08 01:08:31;;;;;;;;;;;24.00;32.40;;;;;;500554;237;1178;-81
2021/11/08 01:10:32;;;;;;;;;;;23.80;32.80;;;;;;500571;236;2192;-82
2021/11/08 01:12:33;;;;;;;;;;;23.70;33.10;;;;;;500626;237;1140;-81
2021/11/08 01:14:34;;;;;;;;;;;23.50;33.20;;;;;;500611;237;890;-81
2021/11/08 01:16:37;;;;;;;;;;;23.50;33.10;;;;;;500584;237;1222;-81
2021/11/08 01:18:37;;;;;;;;;;;23.40;33.50;;;;;;500539;237;1485;-81
2021/11/08 01:20:45;;;;;;;;;;;23.00;33.90;;;;;;500648;237;1216;-81
2021/11/08 01:22:40;;;;;;;;;;;22.90;34.20;;;;;;500178;238;1418;-81
2021/11/08 01:24:41;;;;;;;;;;;22.50;34.50;;;;;;500745;237;1147;-81
2021/11/08 01:26:44;;;;;;;;;;;22.40;34.90;;;;;;500702;237;1223;-81
2021/11/08 01:28:46;;;;;;;;;;;22.20;35.20;;;;;;500520;238;1482;-81
2021/11/08 01:30:47;;;;;;;;;;;21.80;35.70;;;;;;500525;238;2153;-81
2021/11/08 01:32:54;;;;;;;;;;;21.90;35.70;;;;;;500610;238;1383;-81
2021/11/08 01:34:53;;;;;;;;;;;22.10;35.60;;;;;;500609;238;1383;-81
2021/11/08 01:36:55;;;;;;;;;;;21.90;35.70;;;;;;500610;237;1076;-81
2021/11/08 01:39:00;;;;;;;;;;;21.90;36.00;;;;;;500698;237;1111;-82
2021/11/08 01:40:57;;;;;;;;;;;21.80;35.90;;;;;;500363;238;1458;-81
2021/11/08 01:42:58;;;;;;;;;;;22.10;35.60;;;;;;500660;237;1119;-81
2021/11/08 01:45:00;;;;;;;;;;;22.10;35.60;;;;;;500652;237;860;-82
2021/11/08 01:47:01;;;;;;;;;;;22.00;35.30;;;;;;500620;237;1121;-81
2021/11/08 01:49:03;;;;;;;;;;;21.90;35.70;;;;;;500677;237;1094;-81
2021/11/08 01:51:04;;;;;;;;;;;21.90;35.90;;;;;;500593;237;2170;-82
2021/11/08 01:53:05;;;;;;;;;;;22.20;35.40;;;;;;500704;237;1055;-81
2021/11/08 01:55:07;;;;;;;;;;;22.10;35.60;;;;;;500686;237;1250;-82
2021/11/08 01:57:08;;;;;;;;;;;22.70;34.80;;;;;;500616;237;1233;-81
2021/11/08 01:59:09;;;;;;;;;;;22.80;34.40;;;;;;500591;237;957;-81
2021/11/08 02:01:10;;;;;;;;;;;23.20;34.00;;;;;;500558;237;1187;-82
2021/11/08 02:03:12;;;;;;;;;;;23.20;34.00;;;;;;500573;237;899;-82
2021/11/08 02:05:13;;;;;;;;;;;23.50;33.40;;;;;;500611;237;1060;-81
2021/11/08 02:07:14;;;;;;;;;;;23.40;33.50;;;;;;500517;237;1213;-81
2021/11/08 02:09:16;;;;;;;;;;;23.60;33.20;;;;;;500617;237;1158;-81
2021/11/08 02:11:20;;;;;;;;;;;23.80;33.10;;;;;;500547;237;2171;-81
2021/11/08 02:13:19;;;;;;;;;;;23.70;33.10;;;;;;500467;238;1429;-82
2021/11/08 02:15:20;;;;;;;;;;;23.90;32.90;;;;;;500623;237;1136;-81
2021/11/08 02:17:21;;;;;;;;;;;24.00;32.80;;;;;;500581;237;1043;-81
2021/11/08 02:19:24;;;;;;;;;;;24.00;32.80;;;;;;500629;237;1105;-81
2021/11/08 02:21:25;;;;;;;;;;;24.10;32.70;;;;;;500475;237;1450;-82
2021/11/08 02:23:26;;;;;;;;;;;24.00;32.70;;;;;;500495;237;1400;-81
2021/11/08 02:25:27;;;;;;;;;;;24.10;32.60;;;;;;500593;237;861;-82
2021/11/08 02:27:28;;;;;;;;;;;24.20;32.40;;;;;;500570;237;934;-81
2021/11/08 02:29:30;;;;;;;;;;;24.20;32.50;;;;;;500600;237;1217;-81
2021/11/08 02:31:33;;;;;;;;;;;24.10;32.50;;;;;;500580;236;2171;-81
2021/11/08 02:33:32;;;;;;;;;;;24.20;32.50;;;;;;500419;238;1346;-81
2021/11/08 02:35:34;;;;;;;;;;;24.20;32.40;;;;;;500584;237;848;-81
2021/11/08 02:37:35;;;;;;;;;;;24.10;32.50;;;;;;498885;238;1185;-81
2021/11/08 02:39:38;;;;;;;;;;;24.10;32.60;;;;;;500597;237;941;-81
2021/11/08 02:41:37;;;;;;;;;;;24.10;32.60;;;;;;500407;238;1486;-81
2021/11/08 02:43:39;;;;;;;;;;;24.10;32.50;;;;;;500570;237;1159;-81
2021/11/08 02:45:40;;;;;;;;;;;24.10;32.70;;;;;;500523;238;1397;-81
2021/11/08 02:47:41;;;;;;;;;;;24.00;32.80;;;;;;500487;237;1173;-81
2021/11/08 02:49:45;;;;;;;;;;;23.60;33.20;;;;;;500622;237;930;-81
2021/11/08 02:51:48;;;;;;;;;;;23.70;33.30;;;;;;500464;238;2191;-82
2021/11/08 02:53:47;;;;;;;;;;;23.70;33.30;;;;;;500353;238;1452;-81
2021/11/08 02:55:48;;;;;;;;;;;23.50;33.60;;;;;;500556;238;1449;-81
2021/11/08 02:57:50;;;;;;;;;;;23.10;34.00;;;;;;500613;237;1071;-82
2021/11/08 02:59:50;;;;;;;;;;;23.00;34.50;;;;;;500640;237;1304;-81
2021/11/08 03:01:53;;;;;;;;;;;22.60;34.70;;;;;;500587;237;1194;-81
2021/11/08 03:03:55;;;;;;;;;;;22.40;35.20;;;;;;500610;238;1394;-81
2021/11/08 03:05:59;;;;;;;;;;;22.10;35.60;;;;;;500478;238;1491;-81
2021/11/08 03:07:56;;;;;;;;;;;22.00;35.90;;;;;;500354;238;1317;-81
2021/11/08 03:09:59;;;;;;;;;;;21.70;36.20;;;;;;500660;237;866;-82
2021/11/08 03:12:00;;;;;;;;;;;22.20;35.80;;;;;;500468;238;2183;-81
2021/11/08 03:14:03;;;;;;;;;;;22.10;35.80;;;;;;500702;238;1496;-82
2021/11/08 03:16:08;;;;;;;;;;;22.10;35.80;;;;;;500389;238;1325;-81
2021/11/08 03:18:07;;;;;;;;;;;22.00;36.00;;;;;;500280;238;1427;-81
2021/11/08 03:20:06;;;;;;;;;;;22.10;35.60;;;;;;500516;237;1436;-82
2021/11/08 03:22:10;;;;;;;;;;;21.80;36.10;;;;;;500569;237;1146;-81
2021/11/08 03:24:13;;;;;;;;;;;22.50;35.40;;;;;;500544;238;1472;-82
2021/11/08 03:26:16;;;;;;;;;;;22.30;35.60;;;;;;500317;238;1408;-81
2021/11/08 03:28:14;;;;;;;;;;;22.20;35.50;;;;;;500120;238;1396;-81
2021/11/08 03:30:15;;;;;;;;;;;22.50;35.10;;;;;;500659;237;853;-81
2021/11/08 03:32:17;;;;;;;;;;;22.70;34.90;;;;;;500539;237;2164;-81
2021/11/08 03:34:18;;;;;;;;;;;22.90;34.50;;;;;;500599;238;1370;-82
2021/11/08 03:36:19;;;;;;;;;;;22.70;34.70;;;;;;500568;237;1282;-82
2021/11/08 03:38:20;;;;;;;;;;;22.90;34.40;;;;;;500624;237;843;-81
2021/11/08 03:40:21;;;;;;;;;;;23.30;34.10;;;;;;500670;237;851;-81
2021/11/08 03:42:23;;;;;;;;;;;23.40;33.70;;;;;;500687;237;1185;-82
2021/11/08 03:44:24;;;;;;;;;;;23.40;33.80;;;;;;500599;237;909;-81
2021/11/08 03:46:25;;;;;;;;;;;23.60;33.40;;;;;;500619;237;1116;-81
2021/11/08 03:48:27;;;;;;;;;;;23.70;33.40;;;;;;500581;237;927;-81
2021/11/08 03:50:28;;;;;;;;;;;23.90;33.20;;;;;;500606;237;1155;-81
2021/11/08 03:52:29;;;;;;;;;;;23.70;33.20;;;;;;500545;237;2157;-82
2021/11/08 03:54:31;;;;;;;;;;;24.00;33.00;;;;;;500653;237;947;-82
2021/11/08 03:56:32;;;;;;;;;;;23.70;33.10;;;;;;500669;237;1056;-81
2021/11/08 03:58:33;;;;;;;;;;;23.90;33.10;;;;;;500620;237;1103;-82
2021/11/08 04:00:35;;;;;;;;;;;23.90;32.90;;;;;;500612;237;894;-81
2021/11/08 04:02:36;;;;;;;;;;;24.00;32.90;;;;;;500593;237;1072;-81
2021/11/08 04:04:37;;;;;;;;;;;24.10;32.60;;;;;;500686;237;853;-82
2021/11/08 04:06:39;;;;;;;;;;;24.20;32.60;;;;;;500613;235;1230;-81
2021/11/08 04:08:40;;;;;;;;;;;24.00;32.70;;;;;;500693;237;1097;-81
2021/11/08 04:10:42;;;;;;;;;;;24.10;32.70;;;;;;500604;237;920;-81
2021/11/08 04:12:43;;;;;;;;;;;24.10;32.70;;;;;;500639;237;2167;-81
2021/11/08 04:14:44;;;;;;;;;;;24.20;32.50;;;;;;500536;237;945;-81
2021/11/08 04:16:46;;;;;;;;;;;24.30;32.40;;;;;;500444;237;1200;-81
2021/11/08 04:18:50;;;;;;;;;;;24.30;32.40;;;;;;500505;238;1378;-82
2021/11/08 04:20:49;;;;;;;;;;;24.30;32.30;;;;;;500391;238;1410;-81
2021/11/08 04:22:50;;;;;;;;;;;24.20;32.30;;;;;;500592;237;872;-81
2021/11/08 04:24:53;;;;;;;;;;;23.90;32.70;;;;;;500633;237;906;-81
2021/11/08 04:26:53;;;;;;;;;;;24.00;32.60;;;;;;500257;238;1367;-82
2021/11/08 04:28:55;;;;;;;;;;;24.00;32.80;;;;;;500581;237;1192;-81
2021/11/08 04:30:55;;;;;;;;;;;23.70;32.80;;;;;;499984;238;1374;-82
2021/11/08 04:33:14;;;;;;;;;;;22.90;34.00;;;;;;500656;237;2179;-82
2021/11/08 04:35:11;;;;;;;;;;;22.50;34.90;;;;;;499416;238;1310;-81
2021/11/08 04:37:38;;;;;;;;;;;22.30;35.20;;;;;;500023;238;1320;-82
2021/11/08 04:39:33;;;;;;;;;;;22.00;35.50;;;;;;499759;238;1305;-81
2021/11/08 04:41:40;;;;;;;;;;;21.80;36.00;;;;;;500424;238;1278;-81
2021/11/08 04:43:49;;;;;;;;;;;21.70;36.20;;;;;;500284;238;1325;-82
2021/11/08 04:46:10;;;;;;;;;;;21.50;36.50;;;;;;499622;235;1341;-82
2021/11/08 04:50:23;;;;;;;;;;;21.40;36.70;;;;;;500867;238;847;-82
2021/11/08 04:52:38;;;;;;;;;;;21.40;36.70;;;;;;499979;238;2183;-82
2021/11/08 04:54:34;;;;;;;;;;;21.20;36.90;;;;;;499756;238;1330;-82
2021/11/08 04:56:52;;;;;;;;;;;21.10;37.20;;;;;;500180;235;1387;-82
2021/11/08 05:22:12;;;;;;;;;;;22.60;34.40;;;;;;500519;238;1125;-81
2021/11/08 05:24:24;;;;;;;;;;;22.50;34.50;;;;;;500028;238;1486;-81
2021/11/08 05:28:42;;;;;;;;;;;22.50;34.40;;;;;;500563;238;1355;-81
2021/11/08 05:30:41;;;;;;;;;;;22.50;34.20;;;;;;500513;237;1443;-82
2021/11/08 05:32:43;;;;;;;;;;;22.50;34.20;;;;;;500411;237;2164;-81
2021/11/08 05:34:44;;;;;;;;;;;22.80;34.00;;;;;;500458;237;1019;-81
2021/11/08 05:36:45;;;;;;;;;;;23.00;33.50;;;;;;500401;237;1283;-81
2021/11/08 05:38:46;;;;;;;;;;;23.30;33.00;;;;;;500400;237;1127;-81
2021/11/08 05:40:48;;;;;;;;;;;23.40;32.70;;;;;;500330;237;882;-81
2021/11/08 05:42:49;;;;;;;;;;;23.60;32.40;;;;;;500336;237;1154;-81
2021/11/08 05:44:50;;;;;;;;;;;23.50;32.50;;;;;;500489;237;1574;-81
2021/11/08 05:46:52;;;;;;;;;;;23.70;32.30;;;;;;500328;237;881;-81
2021/11/08 05:48:53;;;;;;;;;;;23.50;32.40;;;;;;500402;237;1193;-81
2021/11/08 05:50:54;;;;;;;;;;;23.60;32.20;;;;;;500443;237;1180;-81
2021/11/08 05:52:56;;;;;;;;;;;23.70;32.20;;;;;;500403;237;2195;-81
2021/11/08 05:54:57;;;;;;;;;;;23.60;32.20;;;;;;500449;237;844;-81
2021/11/08 05:57:20;;;;;;;;;;;23.60;32.30;;;;;;500323;237;1109;-81
2021/11/08 05:59:25;;;;;;;;;;;23.50;32.30;;;;;;499447;238;1503;-82
2021/11/08 06:50:10;;;;;;;;;;;20.50;36.20;;;;;;500578;238;901;-82
2021/11/08 06:52:13;;;;;;;;;;;20.50;36.30;;;;;;500597;237;1171;-82
2021/11/08 06:54:14;;;;;;;;;;;20.60;36.30;;;;;;500512;238;2184;-81
2021/11/08 06:56:22;;;;;;;;;;;21.00;35.80;;;;;;500418;237;1204;-82
2021/11/08 06:58:18;;;;;;;;;;;21.20;35.50;;;;;;499908;238;1341;-81
2021/11/08 07:00:18;;;;;;;;;;;21.00;35.70;;;;;;500401;237;1371;-81
2021/11/08 07:02:20;;;;;;;;;;;21.10;35.70;;;;;;500330;237;1113;-82
2021/11/08 07:04:21;;;;;;;;;;;21.20;35.70;;;;;;500301;237;848;-82
2021/11/08 07:06:23;;;;;;;;;;;21.70;35.00;;;;;;500287;237;1184;-82
2021/11/08 07:08:24;;;;;;;;;;;21.80;34.90;;;;;;500307;237;1150;-82
2021/11/08 07:10:25;;;;;;;;;;;22.20;34.20;;;;;;500322;237;839;-81
2021/11/08 07:12:26;;;;;;;;;;;22.10;34.10;;;;;;500294;237;2175;-82
2021/11/08 07:14:28;;;;;;;;;;;22.50;33.80;;;;;;500200;237;1044;-81
2021/11/08 07:16:29;;;;;;;;;;;22.50;33.60;;;;;;500141;235;1227;-81
2021/11/08 07:18:30;;;;;;;;;;;22.90;33.30;;;;;;500388;237;1303;-82
2021/11/08 07:20:32;;;;;;;;;;;22.60;33.50;;;;;;500347;237;873;-82
2021/11/08 07:22:33;;;;;;;;;;;22.70;33.60;;;;;;500252;237;1258;-81
2021/11/08 07:24:34;;;;;;;;;;;22.70;33.50;;;;;;500169;237;869;-81
2021/11/08 07:26:36;;;;;;;;;;;22.90;33.30;;;;;;500144;237;1140;-80
2021/11/08 07:28:37;;;;;;;;;;;22.90;33.30;;;;;;500150;237;885;-81
2021/11/08 07:30:41;;;;;;;;;;;23.10;33.00;;;;;;500182;237;835;-81
2021/11/08 07:32:41;;;;;;;;;;;23.00;33.20;;;;;;499899;238;2176;-81
2021/11/08 07:34:41;;;;;;;;;;;23.10;33.00;;;;;;500258;238;1437;-81
2021/11/08 07:36:42;;;;;;;;;;;23.20;32.80;;;;;;500048;237;1243;-81
2021/11/08 07:38:44;;;;;;;;;;;23.30;32.60;;;;;;500487;237;1197;-81
2021/11/08 07:40:45;;;;;;;;;;;23.20;32.80;;;;;;500279;237;1143;-81
2021/11/08 07:42:48;;;;;;;;;;;23.20;32.90;;;;;;500092;237;1070;-81
2021/11/08 07:44:48;;;;;;;;;;;23.30;32.70;;;;;;500275;237;1309;-81
2021/11/08 07:46:49;;;;;;;;;;;23.20;32.80;;;;;;500365;237;1245;-81
2021/11/08 07:48:50;;;;;;;;;;;23.20;32.90;;;;;;500395;237;995;-81
2021/11/08 07:50:52;;;;;;;;;;;23.10;33.00;;;;;;500301;237;1204;-81
2021/11/08 07:52:53;;;;;;;;;;;23.30;32.80;;;;;;500194;237;2161;-81
2021/11/08 07:54:54;;;;;;;;;;;23.00;33.20;;;;;;500290;237;858;-81
2021/11/08 07:56:56;;;;;;;;;;;22.90;33.20;;;;;;500376;237;1233;-81
2021/11/08 07:58:57;;;;;;;;;;;22.80;33.40;;;;;;500320;237;1097;-81
2021/11/08 08:00:58;;;;;;;;;;;22.70;33.70;;;;;;500287;237;855;-81
2021/11/08 08:03:01;;;;;;;;;;;22.40;34.10;;;;;;500251;237;1030;-81
2021/11/08 08:05:01;;;;;;;;;;;22.30;34.10;;;;;;500198;238;1434;-81
2021/11/08 08:07:03;;;;;;;;;;;21.90;34.60;;;;;;500315;237;1151;-81
2021/11/08 08:09:04;;;;;;;;;;;21.70;35.10;;;;;;500253;238;1064;-81
2021/11/08 08:11:06;;;;;;;;;;;21.60;35.20;;;;;;500081;237;1171;-81
2021/11/08 08:13:07;;;;;;;;;;;21.60;35.40;;;;;;500285;237;2161;-81
2021/11/08 08:15:08;;;;;;;;;;;21.50;35.40;;;;;;500259;237;1086;-81
2021/11/08 08:17:09;;;;;;;;;;;21.40;35.60;;;;;;500311;237;1158;-81
2021/11/08 08:19:11;;;;;;;;;;;21.20;35.80;;;;;;500211;237;843;-81
2021/11/08 08:21:12;;;;;;;;;;;21.10;35.90;;;;;;500166;237;1121;-81
2021/11/08 08:23:13;;;;;;;;;;;21.00;36.00;;;;;;500192;237;1197;-81
2021/11/08 08:25:15;;;;;;;;;;;20.90;36.40;;;;;;499922;237;1023;-81
2021/11/08 08:27:16;;;;;;;;;;;20.90;36.40;;;;;;499912;237;907;-81
2021/11/08 08:29:17;;;;;;;;;;;21.10;36.10;;;;;;500054;237;859;-81
2021/11/08 08:31:19;;;;;;;;;;;20.90;36.10;;;;;;499864;237;865;-82
2021/11/08 08:33:20;;;;;;;;;;;20.80;36.40;;;;;;499889;237;2204;-81
2021/11/08 08:35:21;;;;;;;;;;;20.90;36.30;;;;;;499965;237;852;-81
2021/11/08 08:37:23;;;;;;;;;;;20.90;36.20;;;;;;499799;237;941;-81
2021/11/08 08:39:24;;;;;;;;;;;20.90;36.20;;;;;;499983;237;1194;-81
2021/11/08 08:41:25;;;;;;;;;;;21.00;36.00;;;;;;499724;237;924;-81
2021/11/08 08:43:28;;;;;;;;;;;21.10;36.00;;;;;;499907;237;850;-81
2021/11/08 08:45:28;;;;;;;;;;;21.30;35.50;;;;;;499819;238;1403;-81
2021/11/08 08:47:29;;;;;;;;;;;21.80;34.90;;;;;;499981;237;1103;-81
2021/11/08 08:49:31;;;;;;;;;;;22.30;34.20;;;;;;499912;237;921;-81
2021/11/08 08:51:32;;;;;;;;;;;22.40;33.80;;;;;;499959;237;1120;-82
2021/11/08 08:53:33;;;;;;;;;;;22.90;33.10;;;;;;499970;237;2176;-81
2021/11/08 08:55:35;;;;;;;;;;;23.10;32.80;;;;;;500064;237;912;-82
2021/11/08 08:57:36;;;;;;;;;;;23.10;32.60;;;;;;500010;237;1068;-81
2021/11/08 08:59:37;;;;;;;;;;;23.30;32.50;;;;;;500011;237;956;-81
2021/11/08 09:01:39;;;;;;;;;;;23.40;32.30;;;;;;499701;237;1112;-81
2021/11/08 09:03:40;;;;;;;;;;;23.40;32.20;;;;;;499855;237;895;-81
2021/11/08 09:05:41;;;;;;;;;;;23.40;32.20;;;;;;499974;237;1171;-81
2021/11/08 09:07:43;;;;;;;;;;;23.60;31.90;;;;;;500043;237;1067;-81
2021/11/08 09:09:44;;;;;;;;;;;23.60;31.90;;;;;;500110;237;1219;-81
2021/11/08 09:11:45;;;;;;;;;;;23.80;31.70;;;;;;500139;237;1258;-80
2021/11/08 09:13:47;;;;;;;;;;;23.70;31.70;;;;;;500057;237;2172;-81
2021/11/08 09:15:48;;;;;;;;;;;23.70;31.70;;;;;;499998;237;1137;-81
2021/11/08 09:17:49;;;;;;;;;;;23.90;31.50;;;;;;500013;237;1027;-81
2021/11/08 09:19:51;;;;;;;;;;;23.80;31.50;;;;;;499914;237;920;-81
2021/11/08 09:21:52;;;;;;;;;;;23.80;31.50;;;;;;499959;237;1050;-81
2021/11/08 09:23:55;;;;;;;;;;;23.70;31.70;;;;;;499807;237;1173;-81
2021/11/08 09:25:55;;;;;;;;;;;23.80;31.50;;;;;;499667;237;1367;-81
2021/11/08 09:27:56;;;;;;;;;;;23.60;31.70;;;;;;499881;237;1165;-81
2021/11/08 09:29:57;;;;;;;;;;;23.40;31.80;;;;;;500116;237;857;-81
2021/11/08 09:31:59;;;;;;;;;;;23.20;32.10;;;;;;499969;237;1116;-81
2021/11/08 09:34:04;;;;;;;;;;;23.00;32.40;;;;;;499970;237;2164;-81
2021/11/08 09:36:05;;;;;;;;;;;22.70;32.70;;;;;;500009;237;1487;-81
2021/11/08 09:38:06;;;;;;;;;;;22.80;32.90;;;;;;500087;238;1365;-81
2021/11/08 09:40:08;;;;;;;;;;;22.30;33.40;;;;;;500142;237;1201;-82
2021/11/08 09:42:09;;;;;;;;;;;22.10;33.80;;;;;;500189;237;1307;-81
2021/11/08 09:44:10;;;;;;;;;;;22.10;33.70;;;;;;500259;237;850;-81
2021/11/08 09:46:11;;;;;;;;;;;21.90;34.10;;;;;;500308;237;1210;-81
2021/11/08 09:48:12;;;;;;;;;;;22.00;33.70;;;;;;500463;237;1098;-81
2021/11/08 09:50:14;;;;;;;;;;;21.80;34.10;;;;;;500550;237;1253;-82
2021/11/08 09:52:16;;;;;;;;;;;21.50;34.50;;;;;;500467;237;1204;-81
2021/11/08 09:54:16;;;;;;;;;;;21.60;34.40;;;;;;500391;238;2168;-81
2021/11/08 09:56:18;;;;;;;;;;;21.20;34.90;;;;;;500464;237;1201;-81
2021/11/08 09:58:19;;;;;;;;;;;21.20;35.10;;;;;;500382;237;1090;-81
2021/11/08 10:00:21;;;;;;;;;;;21.10;35.30;;;;;;500343;237;878;-81
2021/11/08 10:02:22;;;;;;;;;;;21.20;35.20;;;;;;500464;237;1088;-81
2021/11/08 10:04:23;;;;;;;;;;;21.30;35.10;;;;;;500047;237;1116;-81
2021/11/08 10:06:26;;;;;;;;;;;21.20;34.90;;;;;;499974;237;1120;-81
2021/11/08 10:08:26;;;;;;;;;;;21.10;35.00;;;;;;499992;238;1269;-81
2021/11/08 10:10:27;;;;;;;;;;;21.10;35.00;;;;;;500087;237;1187;-81
2021/11/08 10:12:29;;;;;;;;;;;21.20;35.10;;;;;;500049;237;1093;-81
2021/11/08 10:14:30;;;;;;;;;;;21.30;34.80;;;;;;500020;237;2192;-81
2021/11/08 10:16:32;;;;;;;;;;;21.50;34.60;;;;;;499908;237;1249;-81
2021/11/08 10:18:32;;;;;;;;;;;21.90;34.10;;;;;;500031;237;1062;-81
2021/11/08 10:20:34;;;;;;;;;;;22.50;33.20;;;;;;500009;237;860;-81
2021/11/08 10:22:35;;;;;;;;;;;22.90;32.50;;;;;;500006;237;1082;-82
2021/11/08 10:24:36;;;;;;;;;;;23.00;32.20;;;;;;500146;237;1071;-82
2021/11/08 10:26:38;;;;;;;;;;;23.40;31.80;;;;;;500070;236;1225;-81
2021/11/08 10:28:39;;;;;;;;;;;23.60;31.40;;;;;;500079;237;913;-81
2021/11/08 10:30:40;;;;;;;;;;;23.70;31.20;;;;;;500049;237;927;-81
2021/11/08 10:32:42;;;;;;;;;;;23.80;31.00;;;;;;500067;237;912;-81
2021/11/08 10:34:43;;;;;;;;;;;23.80;31.00;;;;;;500128;237;2164;-81
2021/11/08 10:36:44;;;;;;;;;;;23.90;30.80;;;;;;500126;237;923;-81
2021/11/08 10:38:46;;;;;;;;;;;24.00;30.70;;;;;;500200;237;878;-81
2021/11/08 10:40:47;;;;;;;;;;;24.00;30.60;;;;;;500100;237;1074;-81
2021/11/08 10:42:48;;;;;;;;;;;24.10;30.50;;;;;;500211;237;954;-81
2021/11/08 10:44:50;;;;;;;;;;;24.10;30.40;;;;;;500145;237;921;-81
2021/11/08 10:46:51;;;;;;;;;;;24.10;30.40;;;;;;500153;237;1172;-81
2021/11/08 10:48:52;;;;;;;;;;;24.10;30.40;;;;;;499944;237;1211;-81
2021/11/08 10:50:54;;;;;;;;;;;24.10;30.30;;;;;;499953;237;1104;-81
2021/11/08 10:52:55;;;;;;;;;;;24.30;30.30;;;;;;500244;237;988;-81
2021/11/08 10:54:57;;;;;;;;;;;24.20;30.20;;;;;;500176;237;2185;-81
2021/11/08 10:56:58;;;;;;;;;;;24.20;30.10;;;;;;500066;237;1039;-81
2021/11/08 10:58:59;;;;;;;;;;;24.30;30.10;;;;;;500112;237;953;-81
2021/11/08 11:01:01;;;;;;;;;;;24.20;30.10;;;;;;499965;237;1094;-81
2021/11/08 11:03:02;;;;;;;;;;;24.10;30.20;;;;;;499955;237;1436;-81
2021/11/08 11:05:03;;;;;;;;;;;24.20;30.20;;;;;;500029;237;957;-81
2021/11/08 11:07:04;;;;;;;;;;;24.00;30.30;;;;;;499994;237;1237;-81
2021/11/08 11:09:06;;;;;;;;;;;24.00;30.40;;;;;;500101;237;920;-81
2021/11/08 11:11:07;;;;;;;;;;;23.90;30.50;;;;;;500223;237;1164;-81
2021/11/08 11:13:12;;;;;;;;;;;23.60;30.60;;;;;;500185;237;1091;-81
2021/11/08 11:15:10;;;;;;;;;;;23.60;30.90;;;;;;499900;238;2187;-81
2021/11/08 11:17:12;;;;;;;;;;;23.30;30.90;;;;;;500724;237;1355;-81
2021/11/08 11:19:13;;;;;;;;;;;23.30;31.20;;;;;;500606;237;881;-81
2021/11/08 11:21:14;;;;;;;;;;;22.70;31.70;;;;;;500606;237;1218;-81
2021/11/08 11:23:16;;;;;;;;;;;22.70;31.90;;;;;;500437;237;888;-81
2021/11/08 11:25:17;;;;;;;;;;;22.80;31.70;;;;;;500462;237;1353;-81
2021/11/08 11:27:18;;;;;;;;;;;22.50;32.20;;;;;;500594;237;1312;-81
2021/11/08 11:29:19;;;;;;;;;;;22.30;32.20;;;;;;500588;237;915;-81
2021/11/08 11:31:21;;;;;;;;;;;21.90;32.70;;;;;;500573;237;816;-81
2021/11/08 11:33:22;;;;;;;;;;;21.80;32.90;;;;;;500600;237;1088;-81
2021/11/08 11:35:23;;;;;;;;;;;21.60;33.20;;;;;;500611;238;2165;-81
2021/11/08 11:37:25;;;;;;;;;;;21.90;33.10;;;;;;500477;237;1201;-81
2021/11/08 11:39:26;;;;;;;;;;;21.80;33.10;;;;;;500599;237;1048;-81
2021/11/08 11:41:29;;;;;;;;;;;21.80;32.90;;;;;;500571;237;1167;-81
2021/11/08 11:43:30;;;;;;;;;;;21.80;33.00;;;;;;500865;237;1093;-81
2021/11/08 11:45:31;;;;;;;;;;;21.70;33.10;;;;;;500558;237;940;-81
2021/11/08 11:47:32;;;;;;;;;;;21.60;33.20;;;;;;500500;237;1131;-81
2021/11/08 11:49:34;;;;;;;;;;;21.80;32.90;;;;;;500490;237;901;-81
2021/11/08 11:51:35;;;;;;;;;;;22.00;32.70;;;;;;500319;237;1144;-81
2021/11/08 11:53:36;;;;;;;;;;;22.50;32.10;;;;;;500223;237;1108;-81
2021/11/08 11:55:38;;;;;;;;;;;22.70;31.70;;;;;;500168;237;2172;-81
2021/11/08 11:57:39;;;;;;;;;;;23.10;31.10;;;;;;500169;237;1446;-81
2021/11/08 11:59:40;;;;;;;;;;;23.20;30.70;;;;;;500081;237;896;-81
2021/11/08 12:01:42;;;;;;;;;;;23.20;30.60;;;;;;500189;237;1200;-81
2021/11/08 12:03:44;;;;;;;;;;;23.40;30.40;;;;;;500335;237;859;-81
2021/11/08 12:05:44;;;;;;;;;;;23.70;30.10;;;;;;500128;237;1220;-81
2021/11/08 12:07:46;;;;;;;;;;;23.70;30.00;;;;;;500303;237;1084;-81
2021/11/08 12:09:47;;;;;;;;;;;23.90;29.90;;;;;;500160;237;865;-81
2021/11/08 12:11:48;;;;;;;;;;;24.00;29.60;;;;;;500027;237;1222;-81
2021/11/08 12:13:50;;;;;;;;;;;23.90;29.60;;;;;;500071;237;920;-81
2021/11/08 12:15:51;;;;;;;;;;;24.10;29.50;;;;;;500038;237;2172;-79
2021/11/08 12:17:52;;;;;;;;;;;24.10;29.40;;;;;;499645;237;1099;-78
2021/11/08 12:19:54;;;;;;;;;;;24.20;29.30;;;;;;499653;237;992;-79
2021/11/08 12:21:55;;;;;;;;;;;24.30;29.20;;;;;;499598;237;1115;-80
2021/11/08 12:23:56;;;;;;;;;;;24.30;29.20;;;;;;499706;237;1073;-80
2021/11/08 12:25:58;;;;;;;;;;;24.40;29.10;;;;;;499163;234;1646;-78
2021/11/08 12:27:59;;;;;;;;;;;24.30;29.00;;;;;;499286;238;1188;-78
2021/11/08 12:30:01;;;;;;;;;;;24.40;29.00;;;;;;499894;237;1056;-78
2021/11/08 12:32:02;;;;;;;;;;;24.40;28.90;;;;;;500428;237;1223;-79
2021/11/08 12:34:03;;;;;;;;;;;24.50;28.90;;;;;;500220;237;1030;-78
2021/11/08 12:36:05;;;;;;;;;;;24.40;28.90;;;;;;500157;237;2167;-78
2021/11/08 12:38:06;;;;;;;;;;;24.40;28.90;;;;;;500049;237;1108;-78
2021/11/08 12:40:07;;;;;;;;;;;24.10;29.10;;;;;;500143;237;987;-78
2021/11/08 12:42:09;;;;;;;;;;;24.20;29.10;;;;;;500214;237;1053;-78
2021/11/08 12:44:10;;;;;;;;;;;24.20;29.10;;;;;;500366;237;1381;-78
2021/11/08 12:46:11;;;;;;;;;;;24.00;29.10;;;;;;500449;237;1216;-78
2021/11/08 12:48:13;;;;;;;;;;;23.80;29.30;;;;;;500452;237;1141;-78
2021/11/08 12:50:14;;;;;;;;;;;23.60;29.60;;;;;;500129;237;1319;-78
2021/11/08 12:52:15;;;;;;;;;;;23.60;29.50;;;;;;500025;237;1229;-78
2021/11/08 12:54:17;;;;;;;;;;;22.90;30.00;;;;;;500048;237;947;-78
2021/11/08 12:56:18;;;;;;;;;;;23.00;30.20;;;;;;500110;237;2168;-78
2021/11/08 12:58:20;;;;;;;;;;;22.50;30.50;;;;;;500159;237;945;-78
2021/11/08 13:00:23;;;;;;;;;;;22.50;30.80;;;;;;500020;237;985;-78
2021/11/08 13:02:25;;;;;;;;;;;22.20;31.00;;;;;;500246;237;1290;-78
2021/11/08 13:04:41;;;;;;;;;;;22.10;31.20;;;;;;500253;237;1816;-78
2021/11/08 13:06:33;;;;;;;;;;;21.90;31.40;;;;;;499427;238;2331;-78
2021/11/08 13:08:34;;;;;;;;;;;21.90;31.30;;;;;;499889;237;1327;-78
2021/11/08 13:10:36;;;;;;;;;;;21.80;31.50;;;;;;499889;237;1339;-78
2021/11/08 13:12:37;;;;;;;;;;;21.70;31.70;;;;;;499894;237;1180;-78
2021/11/08 13:14:38;;;;;;;;;;;21.60;31.50;;;;;;499804;237;2172;-78
2021/11/08 13:16:40;;;;;;;;;;;21.50;31.70;;;;;;499641;237;1222;-78
2021/11/08 13:18:41;;;;;;;;;;;21.40;32.00;;;;;;499858;237;1457;-78